sensor_id;sensor_type;location;lat;lon;timestamp;temperature;humidity
55701;DHT22;41604;43.142;20.512;2024-01-15T00:01:47;0.90;2201.60
55701;DHT22;41604;43.142;20.512;2024-01-15T00:04:12;25.70;2201.60
55701;DHT22;41604;43.142;20.512;2024-01-15T00:06:38;25.70;2201.60
55701;DHT22;41604;43.142;20.512;2024-01-15T00:09:04;0.50;2201.60
55701;DHT22;41604;43.142;20.512;2024-01-15T00:11:32;0.40;2201.60
55701;DHT22;41604;43.142;20.512;2024-01-15T00:13:58;0.30;2201.60
55701;DHT22;41604;43.142;20.512;2024-01-15T00:16:24;0.40;2201.60
55701;DHT22;41604;43.142;20.512;2024-01-15T00:18:50;0.10;2201.60
55701;DHT22;41604;43.142;20.512;2024-01-15T00:21:16;0.00;2201.60
55701;DHT22;41604;43.142;20.512;2024-01-15T00:23:45;0.00;2201.60
55701;DHT22;41604;43.142;20.512;2024-01-15T00:26:11;12.90;2201.60
55701;DHT22;41604;43.142;20.512;2024-01-15T00:28:38;0.40;2201.60
55701;DHT22;41604;43.142;20.512;2024-01-15T00:31:06;0.20;2201.60
55701;DHT22;41604;43.142;20.512;2024-01-15T00:33:32;0.00;2201.60
55701;DHT22;41604;43.142;20.512;2024-01-15T00:35:58;0.50;2201.60
55701;DHT22;41604;43.142;20.512;2024-01-15T00:38:27;0.50;2201.60
55701;DHT22;41604;43.142;20.512;2024-01-15T00:40:53;0.40;2201.60
55701;DHT22;41604;43.142;20.512;2024-01-15T00:43:18;0.60;2201.60
55701;DHT22;41604;43.142;20.512;2024-01-15T00:45:45;0.50;2201.60
55701;DHT22;41604;43.142;20.512;2024-01-15T00:48:11;0.00;2201.60
55701;DHT22;41604;43.142;20.512;2024-01-15T00:50:37;13.00;2201.60
55701;DHT22;41604;43.142;20.512;2024-01-15T00:53:03;12.90;2201.60
55701;DHT22;41604;43.142;20.512;2024-01-15T00:55:29;13.10;2201.60
55701;DHT22;41604;43.142;20.512;2024-01-15T00:57:55;13.20;2201.60
55701;DHT22;41604;43.142;20.512;2024-01-15T01:00:21;13.10;2201.60
55701;DHT22;41604;43.142;20.512;2024-01-15T01:02:47;12.90;2201.60
55701;DHT22;41604;43.142;20.512;2024-01-15T01:05:13;0.40;2201.60
55701;DHT22;41604;43.142;20.512;2024-01-15T01:07:39;0.00;2201.60
55701;DHT22;41604;43.142;20.512;2024-01-15T01:10:05;0.10;2201.60
55701;DHT22;41604;43.142;20.512;2024-01-15T01:12:32;0.20;2201.60
55701;DHT22;41604;43.142;20.512;2024-01-15T01:14:57;0.60;2201.60
55701;DHT22;41604;43.142;20.512;2024-01-15T01:17:25;0.50;2201.60
55701;DHT22;41604;43.142;20.512;2024-01-15T01:19:50;0.10;2201.60
55701;DHT22;41604;43.142;20.512;2024-01-15T01:22:16;13.00;2201.60
55701;DHT22;41604;43.142;20.512;2024-01-15T01:24:42;13.00;2201.60
55701;DHT22;41604;43.142;20.512;2024-01-15T01:27:08;13.20;2201.60
55701;DHT22;41604;43.142;20.512;2024-01-15T01:29:35;13.10;2201.60
55701;DHT22;41604;43.142;20.512;2024-01-15T01:32:01;13.10;2201.60
55701;DHT22;41604;43.142;20.512;2024-01-15T01:34:27;13.20;2201.60
55701;DHT22;41604;43.142;20.512;2024-01-15T01:36:53;13.20;2201.60
55701;DHT22;41604;43.142;20.512;2024-01-15T01:39:18;13.10;2201.60
55701;DHT22;41604;43.142;20.512;2024-01-15T01:41:44;13.20;2201.60
55701;DHT22;41604;43.142;20.512;2024-01-15T01:44:10;13.20;2201.60
55701;DHT22;41604;43.142;20.512;2024-01-15T01:46:36;13.10;2201.60
55701;DHT22;41604;43.142;20.512;2024-01-15T01:49:07;13.10;2201.60
55701;DHT22;41604;43.142;20.512;2024-01-15T01:51:35;13.10;2201.60
55701;DHT22;41604;43.142;20.512;2024-01-15T01:54:03;0.10;2201.60
55701;DHT22;41604;43.142;20.512;2024-01-15T01:56:30;0.00;2201.60
55701;DHT22;41604;43.142;20.512;2024-01-15T01:58:56;13.00;2201.60
55701;DHT22;41604;43.142;20.512;2024-01-15T02:01:22;13.10;2201.60
55701;DHT22;41604;43.142;20.512;2024-01-15T02:03:48;13.20;2201.60
55701;DHT22;41604;43.142;20.512;2024-01-15T02:06:14;13.20;2201.60
55701;DHT22;41604;43.142;20.512;2024-01-15T02:08:43;13.20;2201.60
55701;DHT22;41604;43.142;20.512;2024-01-15T02:11:09;13.00;2201.60
55701;DHT22;41604;43.142;20.512;2024-01-15T02:13:35;13.30;2201.60
55701;DHT22;41604;43.142;20.512;2024-01-15T02:16:01;13.10;2201.60
55701;DHT22;41604;43.142;20.512;2024-01-15T02:18:26;13.00;2201.60
55701;DHT22;41604;43.142;20.512;2024-01-15T02:20:52;0.10;2201.60
55701;DHT22;41604;43.142;20.512;2024-01-15T02:23:18;0.10;2201.60
55701;DHT22;41604;43.142;20.512;2024-01-15T02:25:45;12.90;2201.60
55701;DHT22;41604;43.142;20.512;2024-01-15T02:28:16;13.20;2201.60
55701;DHT22;41604;43.142;20.512;2024-01-15T02:30:43;13.00;2201.60
55701;DHT22;41604;43.142;20.512;2024-01-15T02:33:09;13.10;2201.60
55701;DHT22;41604;43.142;20.512;2024-01-15T02:35:36;13.00;2201.60
55701;DHT22;41604;43.142;20.512;2024-01-15T02:38:03;0.00;2201.60
55701;DHT22;41604;43.142;20.512;2024-01-15T02:40:29;0.00;2201.60
55701;DHT22;41604;43.142;20.512;2024-01-15T02:42:55;0.00;2201.60
55701;DHT22;41604;43.142;20.512;2024-01-15T02:45:21;0.00;2201.60
55701;DHT22;41604;43.142;20.512;2024-01-15T02:47:47;0.00;2201.60
55701;DHT22;41604;43.142;20.512;2024-01-15T02:50:14;0.10;2201.60
55701;DHT22;41604;43.142;20.512;2024-01-15T02:52:39;0.10;2201.60
55701;DHT22;41604;43.142;20.512;2024-01-15T02:55:06;0.20;2201.60
55701;DHT22;41604;43.142;20.512;2024-01-15T02:57:31;0.30;2201.60
55701;DHT22;41604;43.142;20.512;2024-01-15T02:59:57;0.30;2201.60
55701;DHT22;41604;43.142;20.512;2024-01-15T03:02:23;0.30;2201.60
55701;DHT22;41604;43.142;20.512;2024-01-15T03:04:49;0.20;2201.60
55701;DHT22;41604;43.142;20.512;2024-01-15T03:07:15;0.30;2201.60
55701;DHT22;41604;43.142;20.512;2024-01-15T03:09:40;0.10;2201.60
55701;DHT22;41604;43.142;20.512;2024-01-15T03:12:06;0.10;2201.60
55701;DHT22;41604;43.142;20.512;2024-01-15T03:14:32;0.30;2201.60
55701;DHT22;41604;43.142;20.512;2024-01-15T03:16:58;0.40;2201.60
55701;DHT22;41604;43.142;20.512;2024-01-15T03:19:24;0.90;2201.60
55701;DHT22;41604;43.142;20.512;2024-01-15T03:21:49;0.50;2201.60
55701;DHT22;41604;43.142;20.512;2024-01-15T03:24:15;0.40;2201.60
55701;DHT22;41604;43.142;20.512;2024-01-15T03:26:41;0.90;2201.60
55701;DHT22;41604;43.142;20.512;2024-01-15T03:29:07;0.50;2201.60
55701;DHT22;41604;43.142;20.512;2024-01-15T03:31:33;0.30;2201.60
55701;DHT22;41604;43.142;20.512;2024-01-15T03:33:59;0.30;2201.60
55701;DHT22;41604;43.142;20.512;2024-01-15T03:36:24;0.30;2201.60
55701;DHT22;41604;43.142;20.512;2024-01-15T03:38:50;0.20;2201.60
55701;DHT22;41604;43.142;20.512;2024-01-15T03:41:16;0.20;2201.60
55701;DHT22;41604;43.142;20.512;2024-01-15T03:43:42;0.50;2201.60
55701;DHT22;41604;43.142;20.512;2024-01-15T03:46:07;0.40;2201.60
55701;DHT22;41604;43.142;20.512;2024-01-15T03:48:33;0.50;2201.60
55701;DHT22;41604;43.142;20.512;2024-01-15T03:50:59;0.40;2201.60
55701;DHT22;41604;43.142;20.512;2024-01-15T03:53:25;0.60;2201.60
55701;DHT22;41604;43.142;20.512;2024-01-15T03:55:51;0.60;2201.60
55701;DHT22;41604;43.142;20.512;2024-01-15T03:58:18;0.70;2201.60
55701;DHT22;41604;43.142;20.512;2024-01-15T04:00:43;0.60;2201.60
55701;DHT22;41604;43.142;20.512;2024-01-15T04:03:10;0.60;2201.60
55701;DHT22;41604;43.142;20.512;2024-01-15T04:05:35;0.50;2201.60
55701;DHT22;41604;43.142;20.512;2024-01-15T04:08:01;0.40;2201.60
55701;DHT22;41604;43.142;20.512;2024-01-15T04:10:27;0.40;2201.60
55701;DHT22;41604;43.142;20.512;2024-01-15T04:12:52;0.30;2201.60
55701;DHT22;41604;43.142;20.512;2024-01-15T04:15:18;0.50;2201.60
55701;DHT22;41604;43.142;20.512;2024-01-15T04:17:44;0.40;2201.60
55701;DHT22;41604;43.142;20.512;2024-01-15T04:20:10;0.50;2201.60
55701;DHT22;41604;43.142;20.512;2024-01-15T04:22:36;0.40;2201.60
55701;DHT22;41604;43.142;20.512;2024-01-15T04:25:03;0.40;2201.60
55701;DHT22;41604;43.142;20.512;2024-01-15T04:27:29;0.40;2201.60
55701;DHT22;41604;43.142;20.512;2024-01-15T04:29:55;0.50;2201.60
55701;DHT22;41604;43.142;20.512;2024-01-15T04:32:20;0.50;2201.60
55701;DHT22;41604;43.142;20.512;2024-01-15T04:34:46;0.60;2201.60
55701;DHT22;41604;43.142;20.512;2024-01-15T04:37:13;0.60;2201.60
55701;DHT22;41604;43.142;20.512;2024-01-15T04:39:39;0.60;2201.60
55701;DHT22;41604;43.142;20.512;2024-01-15T04:42:05;0.60;2201.60
55701;DHT22;41604;43.142;20.512;2024-01-15T04:44:31;0.60;2201.60
55701;DHT22;41604;43.142;20.512;2024-01-15T04:46:56;0.50;2201.60
55701;DHT22;41604;43.142;20.512;2024-01-15T04:49:22;0.70;2201.60
55701;DHT22;41604;43.142;20.512;2024-01-15T04:51:48;0.70;2201.60
55701;DHT22;41604;43.142;20.512;2024-01-15T04:54:14;0.70;2201.60
55701;DHT22;41604;43.142;20.512;2024-01-15T04:56:46;0.70;2201.60
55701;DHT22;41604;43.142;20.512;2024-01-15T04:59:13;0.80;2201.60
55701;DHT22;41604;43.142;20.512;2024-01-15T05:01:40;0.90;2201.60
55701;DHT22;41604;43.142;20.512;2024-01-15T05:04:05;25.70;2201.60
55701;DHT22;41604;43.142;20.512;2024-01-15T05:06:31;26.10;2201.60
55701;DHT22;41604;43.142;20.512;2024-01-15T05:08:57;26.10;2201.60
55701;DHT22;41604;43.142;20.512;2024-01-15T05:11:23;26.00;2201.60
55701;DHT22;41604;43.142;20.512;2024-01-15T05:13:49;25.90;2201.60
55701;DHT22;41604;43.142;20.512;2024-01-15T05:16:14;26.00;2201.60
55701;DHT22;41604;43.142;20.512;2024-01-15T05:18:40;26.00;2201.60
55701;DHT22;41604;43.142;20.512;2024-01-15T05:21:06;25.80;2201.60
55701;DHT22;41604;43.142;20.512;2024-01-15T05:23:32;25.70;2201.60
55701;DHT22;41604;43.142;20.512;2024-01-15T05:25:57;25.70;2201.60
55701;DHT22;41604;43.142;20.512;2024-01-15T05:28:23;25.60;2201.60
55701;DHT22;41604;43.142;20.512;2024-01-15T05:30:49;25.70;2201.60
55701;DHT22;41604;43.142;20.512;2024-01-15T05:33:16;25.80;2201.60
55701;DHT22;41604;43.142;20.512;2024-01-15T05:35:42;25.80;2201.60
55701;DHT22;41604;43.142;20.512;2024-01-15T05:38:08;25.80;2201.60
55701;DHT22;41604;43.142;20.512;2024-01-15T05:40:34;25.90;2201.60
55701;DHT22;41604;43.142;20.512;2024-01-15T05:42:59;26.00;2201.60
55701;DHT22;41604;43.142;20.512;2024-01-15T05:45:26;25.90;2201.60
55701;DHT22;41604;43.142;20.512;2024-01-15T05:47:52;26.00;2201.60
55701;DHT22;41604;43.142;20.512;2024-01-15T05:50:18;26.00;2201.60
55701;DHT22;41604;43.142;20.512;2024-01-15T05:52:44;25.90;2201.60
55701;DHT22;41604;43.142;20.512;2024-01-15T05:55:10;25.80;2201.60
55701;DHT22;41604;43.142;20.512;2024-01-15T05:57:36;25.80;2201.60
55701;DHT22;41604;43.142;20.512;2024-01-15T06:00:03;25.80;2201.60
55701;DHT22;41604;43.142;20.512;2024-01-15T06:02:29;25.90;2201.60
55701;DHT22;41604;43.142;20.512;2024-01-15T06:04:55;26.10;2201.60
55701;DHT22;41604;43.142;20.512;2024-01-15T06:07:22;26.20;2201.60
55701;DHT22;41604;43.142;20.512;2024-01-15T06:09:48;26.20;2201.60
55701;DHT22;41604;43.142;20.512;2024-01-15T06:12:14;26.20;2201.60
55701;DHT22;41604;43.142;20.512;2024-01-15T06:14:39;26.00;2201.60
55701;DHT22;41604;43.142;20.512;2024-01-15T06:17:07;26.00;2201.60
55701;DHT22;41604;43.142;20.512;2024-01-15T06:19:32;26.10;2201.60
55701;DHT22;41604;43.142;20.512;2024-01-15T06:21:58;26.00;2201.60
55701;DHT22;41604;43.142;20.512;2024-01-15T06:24:24;26.00;2201.60
55701;DHT22;41604;43.142;20.512;2024-01-15T06:26:50;25.90;2201.60
55701;DHT22;41604;43.142;20.512;2024-01-15T06:29:15;26.00;2201.60
55701;DHT22;41604;43.142;20.512;2024-01-15T06:31:41;26.00;2201.60
55701;DHT22;41604;43.142;20.512;2024-01-15T06:34:07;26.00;2201.60
55701;DHT22;41604;43.142;20.512;2024-01-15T06:36:33;26.10;2201.60
55701;DHT22;41604;43.142;20.512;2024-01-15T06:38:58;26.10;2201.60
55701;DHT22;41604;43.142;20.512;2024-01-15T06:41:24;26.20;2201.60
55701;DHT22;41604;43.142;20.512;2024-01-15T06:43:51;26.40;2201.60
55701;DHT22;41604;43.142;20.512;2024-01-15T06:46:22;51.40;2227.20
55701;DHT22;41604;43.142;20.512;2024-01-15T06:48:48;51.20;2227.20
55701;DHT22;41604;43.142;20.512;2024-01-15T06:51:16;26.40;2201.60
55701;DHT22;41604;43.142;20.512;2024-01-15T06:53:42;26.40;2201.60
55701;DHT22;41604;43.142;20.512;2024-01-15T06:56:08;26.40;2201.60
55701;DHT22;41604;43.142;20.512;2024-01-15T06:58:34;26.30;2201.60
55701;DHT22;41604;43.142;20.512;2024-01-15T07:01:00;26.20;2201.60
55701;DHT22;41604;43.142;20.512;2024-01-15T07:03:26;26.40;2201.60
55701;DHT22;41604;43.142;20.512;2024-01-15T07:05:51;26.50;2201.60
55701;DHT22;41604;43.142;20.512;2024-01-15T07:08:17;26.40;2201.60
55701;DHT22;41604;43.142;20.512;2024-01-15T07:10:43;26.40;2201.60
55701;DHT22;41604;43.142;20.512;2024-01-15T07:13:09;26.40;2201.60
55701;DHT22;41604;43.142;20.512;2024-01-15T07:15:34;51.30;2227.20
55701;DHT22;41604;43.142;20.512;2024-01-15T07:18:00;51.30;2227.20
55701;DHT22;41604;43.142;20.512;2024-01-15T07:20:26;51.20;2227.20
55701;DHT22;41604;43.142;20.512;2024-01-15T07:22:52;51.30;2227.20
55701;DHT22;41604;43.142;20.512;2024-01-15T07:25:18;51.60;2227.20
55701;DHT22;41604;43.142;20.512;2024-01-15T07:27:44;51.60;2227.20
55701;DHT22;41604;43.142;20.512;2024-01-15T07:30:13;51.50;2227.20
55701;DHT22;41604;43.142;20.512;2024-01-15T07:32:42;51.50;2227.20
55701;DHT22;41604;43.142;20.512;2024-01-15T07:35:11;51.60;2227.20
55701;DHT22;41604;43.142;20.512;2024-01-15T07:37:37;51.70;2227.20
55701;DHT22;41604;43.142;20.512;2024-01-15T07:40:03;51.80;2227.20
55701;DHT22;41604;43.142;20.512;2024-01-15T07:42:30;51.80;2227.20
55701;DHT22;41604;43.142;20.512;2024-01-15T07:44:55;51.90;2227.20
55701;DHT22;41604;43.142;20.512;2024-01-15T07:47:21;76.80;2227.20
55701;DHT22;41604;43.142;20.512;2024-01-15T07:49:47;52.10;2227.20
55701;DHT22;41604;43.142;20.512;2024-01-15T07:52:13;52.00;2227.20
55701;DHT22;41604;43.142;20.512;2024-01-15T07:54:39;76.80;2227.20
55701;DHT22;41604;43.142;20.512;2024-01-15T07:57:05;77.10;2227.20
55701;DHT22;41604;43.142;20.512;2024-01-15T07:59:30;77.10;2227.20
55701;DHT22;41604;43.142;20.512;2024-01-15T08:01:58;77.00;2227.20
55701;DHT22;41604;43.142;20.512;2024-01-15T08:04:28;76.90;2227.20
55701;DHT22;41604;43.142;20.512;2024-01-15T08:06:54;77.00;2227.20
55701;DHT22;41604;43.142;20.512;2024-01-15T08:09:20;76.90;2227.20
55701;DHT22;41604;43.142;20.512;2024-01-15T08:11:46;76.90;2227.20
55701;DHT22;41604;43.142;20.512;2024-01-15T08:14:12;76.80;2227.20
55701;DHT22;41604;43.142;20.512;2024-01-15T08:16:41;76.90;2227.20
55701;DHT22;41604;43.142;20.512;2024-01-15T08:19:07;77.00;2227.20
55701;DHT22;41604;43.142;20.512;2024-01-15T08:21:33;77.00;2227.20
55701;DHT22;41604;43.142;20.512;2024-01-15T08:24:00;77.20;2227.20
55701;DHT22;41604;43.142;20.512;2024-01-15T08:26:27;77.10;2227.20
55701;DHT22;41604;43.142;20.512;2024-01-15T08:28:53;77.40;2227.20
55701;DHT22;41604;43.142;20.512;2024-01-15T08:31:19;77.30;2227.20
55701;DHT22;41604;43.142;20.512;2024-01-15T08:33:45;77.10;2227.20
55701;DHT22;41604;43.142;20.512;2024-01-15T08:36:11;77.10;2227.20
55701;DHT22;41604;43.142;20.512;2024-01-15T08:38:37;77.10;2227.20
55701;DHT22;41604;43.142;20.512;2024-01-15T08:41:03;77.20;2227.20
55701;DHT22;41604;43.142;20.512;2024-01-15T08:43:28;77.30;2227.20
55701;DHT22;41604;43.142;20.512;2024-01-15T08:45:56;77.30;2227.20
55701;DHT22;41604;43.142;20.512;2024-01-15T08:48:22;77.40;2227.20
55701;DHT22;41604;43.142;20.512;2024-01-15T08:50:48;77.60;2227.20
55701;DHT22;41604;43.142;20.512;2024-01-15T10:26:11;77.50;2227.20
55701;DHT22;41604;43.142;20.512;2024-01-15T10:36:01;179.30;2176.00
55701;DHT22;41604;43.142;20.512;2024-01-15T10:38:27;179.40;2150.40
55701;DHT22;41604;43.142;20.512;2024-01-15T10:40:54;179.20;2150.40
55701;DHT22;41604;43.142;20.512;2024-01-15T10:43:21;179.30;2150.40
55701;DHT22;41604;43.142;20.512;2024-01-15T10:45:49;179.30;2124.80
55701;DHT22;41604;43.142;20.512;2024-01-15T10:48:17;179.30;2124.80
55701;DHT22;41604;43.142;20.512;2024-01-15T10:50:44;179.20;2124.80
55701;DHT22;41604;43.142;20.512;2024-01-15T10:53:12;179.20;2124.80
55701;DHT22;41604;43.142;20.512;2024-01-15T10:55:38;179.20;2150.40
55701;DHT22;41604;43.142;20.512;2024-01-15T10:58:05;154.50;2176.00
55701;DHT22;41604;43.142;20.512;2024-01-15T11:00:35;154.50;2176.00
55701;DHT22;41604;43.142;20.512;2024-01-15T11:03:01;154.40;2176.00
55701;DHT22;41604;43.142;20.512;2024-01-15T11:05:28;154.40;2201.60
55701;DHT22;41604;43.142;20.512;2024-01-15T11:07:58;154.40;2201.60
55701;DHT22;41604;43.142;20.512;2024-01-15T11:10:42;154.50;2176.00
55701;DHT22;41604;43.142;20.512;2024-01-15T11:13:09;154.50;2176.00
55701;DHT22;41604;43.142;20.512;2024-01-15T11:15:55;154.50;2201.60
55701;DHT22;41604;43.142;20.512;2024-01-15T11:18:21;154.40;2201.60
55701;DHT22;41604;43.142;20.512;2024-01-15T11:23:47;154.50;2201.60
55701;DHT22;41604;43.142;20.512;2024-01-15T11:28:55;154.50;2201.60
55701;DHT22;41604;43.142;20.512;2024-01-15T11:32:11;154.50;2176.00
55701;DHT22;41604;43.142;20.512;2024-01-15T11:34:12;179.20;2176.00
55701;DHT22;41604;43.142;20.512;2024-01-15T11:42:02;179.20;2176.00
55701;DHT22;41604;43.142;20.512;2024-01-15T11:44:31;179.30;2176.00
55701;DHT22;41604;43.142;20.512;2024-01-15T11:47:01;179.30;2176.00
55701;DHT22;41604;43.142;20.512;2024-01-15T11:52:18;179.30;2176.00
55701;DHT22;41604;43.142;20.512;2024-01-15T11:54:55;179.20;2176.00
55701;DHT22;41604;43.142;20.512;2024-01-15T12:00:12;179.30;2176.00
55701;DHT22;41604;43.142;20.512;2024-01-15T12:02:40;179.50;2150.40
55701;DHT22;41604;43.142;20.512;2024-01-15T12:05:10;179.40;2150.40
55701;DHT22;41604;43.142;20.512;2024-01-15T12:07:45;179.30;2176.00
55701;DHT22;41604;43.142;20.512;2024-01-15T12:10:11;179.40;2176.00
55701;DHT22;41604;43.142;20.512;2024-01-15T12:15:25;179.30;2176.00
55701;DHT22;41604;43.142;20.512;2024-01-15T12:17:52;179.40;2176.00
55701;DHT22;41604;43.142;20.512;2024-01-15T12:20:18;179.30;2176.00
55701;DHT22;41604;43.142;20.512;2024-01-15T12:22:45;179.40;2176.00
55701;DHT22;41604;43.142;20.512;2024-01-15T12:25:11;179.40;2176.00
55701;DHT22;41604;43.142;20.512;2024-01-15T12:27:37;179.50;2176.00
55701;DHT22;41604;43.142;20.512;2024-01-15T12:30:03;179.70;2150.40
55701;DHT22;41604;43.142;20.512;2024-01-15T12:32:29;179.90;2124.80
55701;DHT22;41604;43.142;20.512;2024-01-15T12:34:55;180.00;2124.80
55701;DHT22;41604;43.142;20.512;2024-01-15T12:37:21;180.10;2124.80
55701;DHT22;41604;43.142;20.512;2024-01-15T12:39:47;204.80;2099.20
55701;DHT22;41604;43.142;20.512;2024-01-15T12:42:17;180.00;2124.80
55701;DHT22;41604;43.142;20.512;2024-01-15T12:44:46;180.10;2099.20
55701;DHT22;41604;43.142;20.512;2024-01-15T12:47:12;204.90;2099.20
55701;DHT22;41604;43.142;20.512;2024-01-15T12:49:38;204.80;2099.20
55701;DHT22;41604;43.142;20.512;2024-01-15T12:52:08;180.10;2124.80
55701;DHT22;41604;43.142;20.512;2024-01-15T12:54:34;204.80;2099.20
55701;DHT22;41604;43.142;20.512;2024-01-15T12:57:00;180.10;2124.80
55701;DHT22;41604;43.142;20.512;2024-01-15T12:59:26;180.00;2124.80
55701;DHT22;41604;43.142;20.512;2024-01-15T13:01:52;179.90;2124.80
55701;DHT22;41604;43.142;20.512;2024-01-15T13:04:24;179.80;2150.40
55701;DHT22;41604;43.142;20.512;2024-01-15T13:06:51;179.80;2150.40
55701;DHT22;41604;43.142;20.512;2024-01-15T13:09:17;179.80;2150.40
55701;DHT22;41604;43.142;20.512;2024-01-15T13:11:46;179.90;2124.80
55701;DHT22;41604;43.142;20.512;2024-01-15T13:14:12;179.80;2150.40
55701;DHT22;41604;43.142;20.512;2024-01-15T13:16:41;179.80;2150.40
55701;DHT22;41604;43.142;20.512;2024-01-15T13:19:11;179.80;2150.40
55701;DHT22;41604;43.142;20.512;2024-01-15T13:21:41;179.80;2150.40
55701;DHT22;41604;43.142;20.512;2024-01-15T13:24:07;179.80;2150.40
55701;DHT22;41604;43.142;20.512;2024-01-15T13:26:36;180.00;2124.80
55701;DHT22;41604;43.142;20.512;2024-01-15T13:29:05;180.00;2124.80
55701;DHT22;41604;43.142;20.512;2024-01-15T13:31:32;179.90;2124.80
55701;DHT22;41604;43.142;20.512;2024-01-15T13:33:58;179.80;2124.80
55701;DHT22;41604;43.142;20.512;2024-01-15T13:36:25;179.70;2150.40
55701;DHT22;41604;43.142;20.512;2024-01-15T13:38:51;179.70;2176.00
55701;DHT22;41604;43.142;20.512;2024-01-15T13:41:21;179.90;2150.40
55701;DHT22;41604;43.142;20.512;2024-01-15T13:43:54;180.10;2150.40
55701;DHT22;41604;43.142;20.512;2024-01-15T13:46:25;180.10;2124.80
55701;DHT22;41604;43.142;20.512;2024-01-15T13:48:55;180.00;2150.40
55701;DHT22;41604;43.142;20.512;2024-01-15T13:51:29;179.90;2150.40
55701;DHT22;41604;43.142;20.512;2024-01-15T13:53:55;179.80;2150.40
55701;DHT22;41604;43.142;20.512;2024-01-15T13:56:21;180.10;2176.00
55701;DHT22;41604;43.142;20.512;2024-01-15T13:58:47;204.80;2150.40
55701;DHT22;41604;43.142;20.512;2024-01-15T14:01:13;204.80;2150.40
55701;DHT22;41604;43.142;20.512;2024-01-15T14:03:39;180.00;2150.40
55701;DHT22;41604;43.142;20.512;2024-01-15T14:06:13;179.90;2150.40
55701;DHT22;41604;43.142;20.512;2024-01-15T14:08:50;180.00;2176.00
55701;DHT22;41604;43.142;20.512;2024-01-15T14:11:17;180.10;2124.80
55701;DHT22;41604;43.142;20.512;2024-01-15T14:13:42;204.80;2124.80
55701;DHT22;41604;43.142;20.512;2024-01-15T14:16:08;180.10;2150.40
55701;DHT22;41604;43.142;20.512;2024-01-15T14:18:35;180.10;2176.00
55701;DHT22;41604;43.142;20.512;2024-01-15T14:21:12;179.90;2176.00
55701;DHT22;41604;43.142;20.512;2024-01-15T14:23:41;179.90;2176.00
55701;DHT22;41604;43.142;20.512;2024-01-15T14:26:15;179.80;2201.60
55701;DHT22;41604;43.142;20.512;2024-01-15T14:28:41;179.70;2201.60
55701;DHT22;41604;43.142;20.512;2024-01-15T14:31:07;179.70;2201.60
55701;DHT22;41604;43.142;20.512;2024-01-15T14:33:33;179.70;2227.20
55701;DHT22;41604;43.142;20.512;2024-01-15T14:35:58;179.60;2227.20
55701;DHT22;41604;43.142;20.512;2024-01-15T14:38:27;179.50;2252.80
55701;DHT22;41604;43.142;20.512;2024-01-15T14:40:53;179.50;2252.80
55701;DHT22;41604;43.142;20.512;2024-01-15T14:43:19;179.50;2252.80
55701;DHT22;41604;43.142;20.512;2024-01-15T14:45:45;179.40;2252.80
55701;DHT22;41604;43.142;20.512;2024-01-15T14:48:11;179.40;2252.80
55701;DHT22;41604;43.142;20.512;2024-01-15T14:50:39;179.30;2252.80
55701;DHT22;41604;43.142;20.512;2024-01-15T14:53:05;179.20;2252.80
55701;DHT22;41604;43.142;20.512;2024-01-15T14:55:31;179.20;2252.80
55701;DHT22;41604;43.142;20.512;2024-01-15T14:57:57;154.50;2252.80
55701;DHT22;41604;43.142;20.512;2024-01-15T15:00:23;154.50;2252.80
55701;DHT22;41604;43.142;20.512;2024-01-15T15:02:49;154.50;2252.80
55701;DHT22;41604;43.142;20.512;2024-01-15T15:05:15;154.40;2252.80
55701;DHT22;41604;43.142;20.512;2024-01-15T15:07:43;154.40;2252.80
55701;DHT22;41604;43.142;20.512;2024-01-15T15:10:09;154.30;2252.80
55701;DHT22;41604;43.142;20.512;2024-01-15T15:12:36;154.30;2252.80
55701;DHT22;41604;43.142;20.512;2024-01-15T15:15:12;154.20;2252.80
55701;DHT22;41604;43.142;20.512;2024-01-15T15:17:39;154.10;2252.80
55701;DHT22;41604;43.142;20.512;2024-01-15T15:20:06;154.10;2252.80
55701;DHT22;41604;43.142;20.512;2024-01-15T15:22:35;154.00;2252.80
55701;DHT22;41604;43.142;20.512;2024-01-15T15:25:07;154.00;2252.80
55701;DHT22;41604;43.142;20.512;2024-01-15T15:27:35;153.90;2252.80
55701;DHT22;41604;43.142;20.512;2024-01-15T15:30:00;153.90;2252.80
55701;DHT22;41604;43.142;20.512;2024-01-15T15:32:26;153.90;2252.80
55701;DHT22;41604;43.142;20.512;2024-01-15T15:34:52;154.00;2252.80
55701;DHT22;41604;43.142;20.512;2024-01-15T15:37:18;154.00;2252.80
55701;DHT22;41604;43.142;20.512;2024-01-15T15:39:43;153.90;2252.80
55701;DHT22;41604;43.142;20.512;2024-01-15T15:42:09;153.90;2252.80
55701;DHT22;41604;43.142;20.512;2024-01-15T15:44:35;153.80;2252.80
55701;DHT22;41604;43.142;20.512;2024-01-15T15:47:02;153.90;2252.80
55701;DHT22;41604;43.142;20.512;2024-01-15T15:49:28;153.90;2252.80
55701;DHT22;41604;43.142;20.512;2024-01-15T15:52:05;153.90;2252.80
55701;DHT22;41604;43.142;20.512;2024-01-15T15:54:35;153.80;2252.80
55701;DHT22;41604;43.142;20.512;2024-01-15T15:57:02;153.70;2252.80
55701;DHT22;41604;43.142;20.512;2024-01-15T15:59:29;153.80;2252.80
55701;DHT22;41604;43.142;20.512;2024-01-15T16:01:58;128.90;2252.80
55701;DHT22;41604;43.142;20.512;2024-01-15T16:04:24;128.90;2252.80
55701;DHT22;41604;43.142;20.512;2024-01-15T16:07:00;128.90;2252.80
55701;DHT22;41604;43.142;20.512;2024-01-15T16:09:26;128.90;2252.80
55701;DHT22;41604;43.142;20.512;2024-01-15T16:11:52;153.60;2252.80
55701;DHT22;41604;43.142;20.512;2024-01-15T16:14:18;128.90;2252.80
55701;DHT22;41604;43.142;20.512;2024-01-15T16:16:45;128.90;2252.80
55701;DHT22;41604;43.142;20.512;2024-01-15T16:19:11;128.80;2252.80
55701;DHT22;41604;43.142;20.512;2024-01-15T16:21:37;128.70;2252.80
55701;DHT22;41604;43.142;20.512;2024-01-15T16:24:03;128.70;2252.80
55701;DHT22;41604;43.142;20.512;2024-01-15T16:26:29;128.70;2252.80
55701;DHT22;41604;43.142;20.512;2024-01-15T16:28:55;128.80;2252.80
55701;DHT22;41604;43.142;20.512;2024-01-15T16:31:21;128.70;2252.80
55701;DHT22;41604;43.142;20.512;2024-01-15T16:33:47;128.70;2252.80
55701;DHT22;41604;43.142;20.512;2024-01-15T16:36:13;128.70;2252.80
55701;DHT22;41604;43.142;20.512;2024-01-15T16:38:39;128.80;2252.80
55701;DHT22;41604;43.142;20.512;2024-01-15T16:41:04;128.80;2252.80
55701;DHT22;41604;43.142;20.512;2024-01-15T16:43:30;128.70;2252.80